createdAt,value
2022-07-26T00:00:32.526Z,98677.59
2022-07-26T00:03:02.563Z,98683.31
2022-07-26T00:05:32.187Z,98687.16
2022-07-26T00:08:13.272Z,98685.56
2022-07-26T00:10:46.615Z,98686.41
2022-07-26T00:13:17.375Z,98687.75
2022-07-26T00:15:49.788Z,98690.19
2022-07-26T00:18:20.808Z,98684.78
2022-07-26T00:20:50.726Z,98693.97
2022-07-26T00:23:21.047Z,98696.94
2022-07-26T00:25:53.114Z,98697.22
2022-07-26T00:28:22.487Z,98702.06
2022-07-26T00:30:51.829Z,98711.28
2022-07-26T00:33:21.404Z,98709.19
2022-07-26T00:35:50.909Z,98708.13
2022-07-26T00:38:20.289Z,98706.53
2022-07-26T00:40:49.629Z,98709.78
2022-07-26T00:43:21.603Z,98717.59
2022-07-26T00:45:51.310Z,98716.50
2022-07-26T00:48:21.155Z,98720.88
2022-07-26T00:50:50.576Z,98720.06
2022-07-26T00:53:22.125Z,98730.03
2022-07-26T00:55:52.189Z,98733.81
2022-07-26T00:58:24.205Z,98729.78
2022-07-26T01:00:53.885Z,98738.41
2022-07-26T01:03:23.295Z,98734.63
2022-07-26T01:05:58.680Z,98730.34
2022-07-26T01:08:28.041Z,98736.00
2022-07-26T01:10:57.587Z,98744.34
2022-07-26T01:13:33.226Z,98743.81
2022-07-26T01:16:04.741Z,98752.19
2022-07-26T01:18:34.286Z,98749.50
2022-07-26T01:21:13.175Z,98751.38
2022-07-26T01:23:46.983Z,98747.91
2022-07-26T01:26:16.423Z,98747.88
2022-07-26T01:28:46.578Z,98759.22
2022-07-26T01:31:16.050Z,98752.97
2022-07-26T01:33:45.750Z,98756.25
2022-07-26T01:36:15.361Z,98751.69
2022-07-26T01:38:50.995Z,98753.78
2022-07-26T01:41:31.043Z,98757.06
2022-07-26T01:44:07.958Z,98756.75
2022-07-26T01:46:37.732Z,98757.28
2022-07-26T01:49:08.520Z,98760.25
2022-07-26T01:51:38.475Z,98764.34
2022-07-26T01:54:11.039Z,98756.50
2022-07-26T01:56:40.766Z,98757.84
2022-07-26T01:59:10.163Z,98759.75
2022-07-26T02:01:40.374Z,98760.56
2022-07-26T02:04:29.987Z,98759.50
2022-07-26T02:06:59.770Z,98759.50
2022-07-26T02:09:34.122Z,98765.41
2022-07-26T02:12:09.558Z,98772.09
2022-07-26T02:14:39.062Z,98769.94
2022-07-26T02:17:08.756Z,98772.91
2022-07-26T02:19:38.126Z,98770.75
2022-07-26T02:22:08.172Z,98775.84
2022-07-26T02:24:40.238Z,98772.91
2022-07-26T02:27:09.859Z,98773.72
2022-07-26T02:29:39.254Z,98768.88
2022-07-26T02:32:09.195Z,98773.97
2022-07-26T02:34:38.573Z,98774.25
2022-07-26T02:37:08.066Z,98774.25
2022-07-26T02:39:40.010Z,98774.78
2022-07-26T02:42:09.469Z,98771.28
2022-07-26T02:44:38.880Z,98774.25
2022-07-26T02:47:08.381Z,98768.59
2022-07-26T02:49:41.913Z,98769.38
2022-07-26T02:52:11.262Z,98765.63
2022-07-26T02:54:43.265Z,98783.13
2022-07-26T02:57:13.820Z,98778.03
2022-07-26T02:59:43.219Z,98779.88
2022-07-26T03:02:12.649Z,98780.97
2022-07-26T03:04:42.051Z,98777.72
2022-07-26T03:07:13.241Z,98773.69
2022-07-26T03:09:45.348Z,98780.44
2022-07-26T03:12:14.687Z,98775.03
2022-07-26T03:14:44.082Z,98773.94
2022-07-26T03:17:13.512Z,98778.25
2022-07-26T03:19:42.913Z,98775.31
2022-07-26T03:22:12.588Z,98777.72
2022-07-26T03:24:41.992Z,98787.03
2022-07-26T03:27:13.959Z,98779.22
2022-07-26T03:29:43.322Z,98781.03
2022-07-26T03:32:12.695Z,98784.78
2022-07-26T03:34:42.231Z,98784.44
2022-07-26T03:37:11.595Z,98789.22
2022-07-26T03:39:40.997Z,98782.38
2022-07-26T03:42:10.374Z,98784.81
2022-07-26T03:44:42.542Z,98784.19
2022-07-26T03:47:12.359Z,98784.94
2022-07-26T03:49:41.775Z,98784.41
2022-07-26T03:52:11.198Z,98786.25
2022-07-26T03:54:40.599Z,98789.63
2022-07-26T03:57:07.425Z,98789.88
2022-07-26T03:59:36.808Z,98778.72
2022-07-26T04:02:08.897Z,98780.59
2022-07-26T04:04:38.332Z,98776.28
2022-07-26T04:07:09.407Z,98782.16
2022-07-26T04:09:38.965Z,98778.91
2022-07-26T04:12:08.956Z,98788.22
2022-07-26T04:14:38.686Z,98785.25
2022-07-26T04:17:10.698Z,98779.66
2022-07-26T04:19:40.445Z,98781.81
2022-07-26T04:22:09.843Z,98792.06
2022-07-26T04:24:39.238Z,98793.09
2022-07-26T04:27:08.614Z,98801.38
2022-07-26T04:29:37.972Z,98808.13
2022-07-26T04:32:10.142Z,98812.41
2022-07-26T04:34:39.518Z,98814.25
2022-07-26T04:37:08.904Z,98813.53
2022-07-26T04:39:38.326Z,98827.56
2022-07-26T04:42:07.774Z,98826.75
2022-07-26T04:44:37.254Z,98821.09
2022-07-26T04:47:06.954Z,98823.00
2022-07-26T04:49:38.927Z,98825.97
2022-07-26T04:52:08.639Z,98822.41
2022-07-26T04:54:38.018Z,98827.06
2022-07-26T04:57:07.407Z,98824.88
2022-07-26T04:59:37.249Z,98821.94
2022-07-26T05:02:06.712Z,98829.22
2022-07-26T05:04:36.164Z,98835.94
2022-07-26T05:07:08.132Z,98837.50
2022-07-26T05:09:37.531Z,98836.69
2022-07-26T05:12:07.028Z,98838.03
2022-07-26T05:14:37.556Z,98838.25
2022-07-26T05:17:08.782Z,98841.13
2022-07-26T05:19:38.517Z,98852.47
2022-07-26T05:22:10.490Z,98859.72
2022-07-26T05:24:39.932Z,98860.00
2022-07-26T05:27:09.404Z,98858.84
2022-07-26T05:29:38.875Z,98859.94
2022-07-26T05:32:09.140Z,98862.00
2022-07-26T05:34:38.617Z,98861.38
2022-07-26T05:37:11.047Z,98861.63
2022-07-26T05:39:40.445Z,98861.50
2022-07-26T05:42:09.913Z,98864.28
2022-07-26T05:44:42.678Z,98873.25
2022-07-26T05:47:12.294Z,98867.66
2022-07-26T05:49:41.783Z,98872.44
2022-07-26T05:52:13.782Z,98873.16
2022-07-26T05:54:43.155Z,98871.25
2022-07-26T05:57:12.574Z,98865.38
2022-07-26T05:59:42.013Z,98861.94
2022-07-26T06:02:11.579Z,98860.94
2022-07-26T06:04:41.093Z,98862.25
2022-07-26T06:07:13.179Z,98864.38
2022-07-26T06:09:42.639Z,98864.31
2022-07-26T06:12:12.357Z,98862.84
2022-07-26T06:14:41.741Z,98857.47
2022-07-26T06:17:11.126Z,98853.22
2022-07-26T06:19:45.610Z,98864.47
2022-07-26T06:22:19.489Z,98871.03
2022-07-26T06:24:48.865Z,98874.47
2022-07-26T06:27:18.282Z,98877.16
2022-07-26T06:29:48.555Z,98871.31
2022-07-26T06:32:17.977Z,98863.09
2022-07-26T06:34:47.554Z,98873.31
2022-07-26T06:37:19.481Z,98871.69
2022-07-26T06:39:48.879Z,98867.91
2022-07-26T06:42:18.220Z,98868.41
2022-07-26T06:44:48.514Z,98858.50
2022-07-26T06:47:17.930Z,98871.94
2022-07-26T06:49:47.549Z,98870.81
2022-07-26T06:52:19.503Z,98875.25
2022-07-26T06:54:49.215Z,98867.06
2022-07-26T06:57:18.715Z,98874.44
2022-07-26T06:59:48.162Z,98878.25
2022-07-26T07:02:17.513Z,98878.00
2022-07-26T07:04:46.974Z,98878.59
2022-07-26T07:07:18.963Z,98884.06
2022-07-26T07:09:48.316Z,98880.28
2022-07-26T07:12:18.496Z,98876.97
2022-07-26T07:14:47.909Z,98882.91
2022-07-26T07:17:21.297Z,98882.69
2022-07-26T07:19:50.905Z,98893.22
2022-07-26T07:22:22.873Z,98877.03
2022-07-26T07:24:52.271Z,98874.41
2022-07-26T07:27:21.640Z,98879.06
2022-07-26T07:29:51.085Z,98868.56
2022-07-26T07:32:20.544Z,98870.94
2022-07-26T07:34:51.435Z,98864.56
2022-07-26T07:37:23.567Z,98869.97
2022-07-26T07:39:53.075Z,98866.28
2022-07-26T07:42:23.445Z,98866.88
2022-07-26T07:44:52.821Z,98870.41
2022-07-26T07:47:22.298Z,98874.19
2022-07-26T07:49:51.724Z,98877.97
2022-07-26T07:52:23.690Z,98879.56
2022-07-26T07:55:06.428Z,98882.78
2022-07-26T07:57:42.528Z,98882.56
2022-07-26T08:00:13.012Z,98875.88
2022-07-26T08:02:45.305Z,98879.97
2022-07-26T08:05:15.431Z,98877.34
2022-07-26T08:07:47.725Z,98872.03
2022-07-26T08:10:17.258Z,98873.63
2022-07-26T08:12:47.084Z,98875.81
2022-07-26T08:15:22.048Z,98878.78
2022-07-26T08:17:53.907Z,98872.84
2022-07-26T08:20:24.933Z,98887.41
2022-07-26T08:22:57.380Z,98887.13
2022-07-26T08:25:26.819Z,98886.88
2022-07-26T08:28:04.137Z,98887.94
2022-07-26T08:30:33.702Z,98884.16
2022-07-26T08:33:03.193Z,98896.00
2022-07-26T08:35:32.690Z,98889.28
2022-07-26T08:38:04.672Z,98880.59
2022-07-26T08:40:35.405Z,98885.72
2022-07-26T08:43:05.092Z,98886.22
2022-07-26T08:45:34.947Z,98891.13
2022-07-26T08:48:17.201Z,98885.44
2022-07-26T08:50:47.616Z,98881.34
2022-07-26T08:53:19.584Z,98890.47
2022-07-26T08:58:40.870Z,98898.19
2022-07-26T09:01:12.948Z,98894.34
2022-07-26T09:03:42.865Z,98882.22
2022-07-26T09:06:16.426Z,98891.78
2022-07-26T09:08:48.936Z,98894.97
2022-07-26T09:11:34.702Z,98894.63
2022-07-26T09:14:04.816Z,98891.16
2022-07-26T09:16:39.262Z,98895.06
2022-07-26T09:19:21.465Z,98890.34
2022-07-26T09:21:51.105Z,98891.94
2022-07-26T09:24:34.778Z,98894.72
2022-07-26T09:27:05.412Z,98891.94
2022-07-26T09:29:44.745Z,98887.56
2022-07-26T09:32:17.199Z,98890.91
2022-07-26T09:34:52.674Z,98900.06
2022-07-26T09:37:35.680Z,98899.22
2022-07-26T09:40:08.794Z,98893.66
2022-07-26T09:42:38.397Z,98886.53
2022-07-26T09:45:17.901Z,98888.25
2022-07-26T09:47:47.336Z,98886.06
2022-07-26T09:50:17.685Z,98894.75
2022-07-26T09:53:00.410Z,98892.13
2022-07-26T09:55:43.977Z,98898.22
2022-07-26T09:58:14.935Z,98884.78
2022-07-26T10:00:44.762Z,98897.06
2022-07-26T10:03:14.608Z,98894.91
2022-07-26T10:05:44.189Z,98895.66
2022-07-26T10:08:14.915Z,98899.75
2022-07-26T10:10:49.279Z,98892.22
2022-07-26T10:13:18.954Z,98905.00
2022-07-26T10:15:49.508Z,98900.22
2022-07-26T10:18:33.940Z,98900.56
2022-07-26T10:21:20.336Z,98903.84
2022-07-26T10:23:50.372Z,98892.13
2022-07-26T10:26:35.100Z,98899.50
2022-07-26T10:29:19.633Z,98891.41
2022-07-26T10:31:52.143Z,98888.00
2022-07-26T10:34:33.030Z,98889.44
2022-07-26T10:37:03.571Z,98877.47
2022-07-26T10:39:33.085Z,98882.59
2022-07-26T10:42:04.509Z,98880.22
2022-07-26T10:44:34.458Z,98883.78
2022-07-26T10:47:15.937Z,98884.38
2022-07-26T10:49:47.088Z,98869.78
2022-07-26T10:52:17.921Z,98880.28
2022-07-26T10:55:17.826Z,98872.59
2022-07-26T10:57:48.385Z,98868.75
2022-07-26T11:00:27.676Z,98882.09
2022-07-26T11:03:01.611Z,98869.44
2022-07-26T11:05:32.238Z,98864.84
2022-07-26T11:08:05.363Z,98869.34
2022-07-26T11:10:36.688Z,98866.94
2022-07-26T11:13:08.077Z,98871.06
2022-07-26T11:15:38.194Z,98866.28
2022-07-26T11:18:14.609Z,98860.34
2022-07-26T11:20:45.289Z,98875.94
2022-07-26T11:23:38.438Z,98869.66
2022-07-26T11:26:09.147Z,98868.94
2022-07-26T11:29:06.364Z,98862.97
2022-07-26T11:31:51.553Z,98880.56
2022-07-26T11:34:33.810Z,98874.50
2022-07-26T11:37:04.749Z,98868.06
2022-07-26T11:39:34.872Z,98875.38
2022-07-26T11:42:05.148Z,98874.34
2022-07-26T11:44:34.889Z,98875.06
2022-07-26T11:47:12.788Z,98880.28
2022-07-26T11:50:00.749Z,98871.94
2022-07-26T11:52:34.594Z,98869.06
2022-07-26T11:55:03.928Z,98866.66
2022-07-26T11:57:34.277Z,98866.22
2022-07-26T12:00:04.089Z,98864.72
2022-07-26T12:02:42.707Z,98874.53
2022-07-26T12:05:19.569Z,98874.50
2022-07-26T12:07:56.493Z,98872.53
2022-07-26T12:10:25.958Z,98880.13
2022-07-26T12:13:09.232Z,98879.09
2022-07-26T12:15:48.566Z,98872.22
2022-07-26T12:18:24.765Z,98870.81
2022-07-26T12:21:08.069Z,98876.22
2022-07-26T12:23:48.410Z,98867.97
2022-07-26T12:26:22.059Z,98874.41
2022-07-26T12:28:51.406Z,98867.91
2022-07-26T12:31:27.598Z,98859.69
2022-07-26T12:33:57.165Z,98856.19
2022-07-26T12:36:30.449Z,98857.06
2022-07-26T12:39:00.995Z,98863.66
2022-07-26T12:41:34.157Z,98854.50
2022-07-26T12:44:03.539Z,98848.84
2022-07-26T12:46:34.624Z,98855.69
2022-07-26T12:49:04.755Z,98855.69
2022-07-26T12:51:37.091Z,98856.41
2022-07-26T12:54:06.925Z,98853.25
